sensor_id;sensor_type;location;lat;lon;timestamp;P1;durP1;ratioP1;P2;durP2;ratioP2
74102;SDS011;62463;46.166;3.640;2022-08-11T13:03:25;6.00;;;2.80;;
74102;SDS011;62463;46.166;3.640;2022-08-11T13:06:09;7.25;;;3.03;;
74102;SDS011;62463;46.166;3.640;2022-08-11T13:08:36;8.85;;;2.92;;
74102;SDS011;62463;46.166;3.640;2022-08-11T13:13:29;7.10;;;3.10;;
74102;SDS011;62463;46.166;3.640;2022-08-11T13:15:56;6.35;;;2.60;;
74102;SDS011;62463;46.166;3.640;2022-08-11T13:18:22;3.90;;;2.40;;
74102;SDS011;62463;46.166;3.640;2022-08-11T13:20:48;5.70;;;2.85;;
74102;SDS011;62463;46.166;3.640;2022-08-11T13:23:17;4.00;;;2.45;;
74102;SDS011;62463;46.166;3.640;2022-08-11T13:25:44;3.75;;;2.65;;
74102;SDS011;62463;46.166;3.640;2022-08-11T13:28:10;5.57;;;2.50;;
74102;SDS011;62853;46.166;3.640;2022-08-11T13:30:36;6.55;;;2.67;;
74102;SDS011;62853;46.166;3.640;2022-08-11T13:33:21;5.75;;;2.72;;
74102;SDS011;62853;46.166;3.640;2022-08-11T13:35:47;3.42;;;2.30;;
74102;SDS011;62853;46.166;3.640;2022-08-11T13:38:16;4.93;;;2.70;;
74102;SDS011;62853;46.166;3.640;2022-08-11T13:40:43;2.88;;;2.50;;
74102;SDS011;62853;46.166;3.640;2022-08-11T13:43:10;7.78;;;2.70;;
74102;SDS011;62853;46.166;3.640;2022-08-11T13:45:38;4.82;;;2.70;;
74102;SDS011;62853;46.166;3.640;2022-08-11T13:48:05;3.47;;;2.70;;
74102;SDS011;62853;46.166;3.640;2022-08-11T13:50:33;5.55;;;2.40;;
74102;SDS011;62853;46.166;3.640;2022-08-11T13:53:20;5.53;;;2.70;;
74102;SDS011;62853;46.166;3.640;2022-08-11T13:55:46;4.25;;;2.50;;
74102;SDS011;62853;46.166;3.640;2022-08-11T13:58:13;5.10;;;2.42;;
74102;SDS011;62853;46.166;3.640;2022-08-11T14:00:40;4.65;;;2.25;;
74102;SDS011;62853;46.166;3.640;2022-08-11T14:03:10;4.32;;;2.40;;
74102;SDS011;62853;46.166;3.640;2022-08-11T14:05:40;4.32;;;2.40;;
74102;SDS011;62853;46.166;3.640;2022-08-11T14:08:11;7.88;;;2.85;;
74102;SDS011;62853;46.166;3.640;2022-08-11T14:10:43;6.63;;;2.55;;
74102;SDS011;62853;46.166;3.640;2022-08-11T14:13:31;4.63;;;2.70;;
74102;SDS011;62853;46.166;3.640;2022-08-11T14:16:07;4.82;;;2.70;;
74102;SDS011;62853;46.166;3.640;2022-08-11T14:18:43;6.18;;;2.53;;
74102;SDS011;62853;46.166;3.640;2022-08-11T14:21:11;3.42;;;2.25;;
74102;SDS011;62853;46.166;3.640;2022-08-11T14:23:58;6.85;;;2.38;;
74102;SDS011;62853;46.166;3.640;2022-08-11T14:26:25;5.70;;;2.65;;
74102;SDS011;62853;46.166;3.640;2022-08-11T14:28:53;3.63;;;2.42;;
74102;SDS011;62853;46.166;3.640;2022-08-11T14:31:25;6.20;;;2.67;;
74102;SDS011;62853;46.166;3.640;2022-08-11T14:33:52;5.57;;;2.40;;
74102;SDS011;62853;46.166;3.640;2022-08-11T14:36:20;5.05;;;2.40;;
74102;SDS011;62853;46.166;3.640;2022-08-11T14:38:47;7.10;;;2.78;;
74102;SDS011;62853;46.166;3.640;2022-08-11T14:41:14;7.18;;;2.58;;
74102;SDS011;62853;46.166;3.640;2022-08-11T14:44:00;6.95;;;2.50;;
74102;SDS011;62853;46.166;3.640;2022-08-11T14:46:44;8.93;;;2.85;;
74102;SDS011;62853;46.166;3.640;2022-08-11T14:49:29;5.28;;;2.40;;
74102;SDS011;62853;46.166;3.640;2022-08-11T14:51:58;7.55;;;2.83;;
74102;SDS011;62853;46.166;3.640;2022-08-11T14:54:27;6.30;;;2.30;;
74102;SDS011;62853;46.166;3.640;2022-08-11T14:57:13;4.90;;;2.28;;
74102;SDS011;62853;46.166;3.640;2022-08-11T14:59:40;5.25;;;2.47;;
74102;SDS011;62853;46.166;3.640;2022-08-11T15:02:07;3.92;;;2.25;;
74102;SDS011;62853;46.166;3.640;2022-08-11T15:04:52;3.80;;;2.40;;
74102;SDS011;62853;46.166;3.640;2022-08-11T15:07:20;4.30;;;2.70;;
74102;SDS011;62853;46.166;3.640;2022-08-11T15:09:53;2.92;;;2.42;;
74102;SDS011;62853;46.166;3.640;2022-08-11T15:12:21;6.22;;;2.47;;
74102;SDS011;62853;46.166;3.640;2022-08-11T15:14:47;3.97;;;2.58;;
74102;SDS011;62853;46.166;3.640;2022-08-11T15:17:33;3.22;;;2.40;;
74102;SDS011;62853;46.166;3.640;2022-08-11T15:20:05;5.65;;;2.95;;
74102;SDS011;62853;46.166;3.640;2022-08-11T15:22:52;5.00;;;2.63;;
74102;SDS011;62853;46.166;3.640;2022-08-11T15:25:36;4.43;;;2.67;;
74102;SDS011;62853;46.166;3.640;2022-08-11T15:28:04;6.20;;;2.50;;
74102;SDS011;62853;46.166;3.640;2022-08-11T15:30:52;7.28;;;2.80;;
74102;SDS011;62853;46.166;3.640;2022-08-11T15:33:39;5.05;;;2.40;;
74102;SDS011;62853;46.166;3.640;2022-08-11T15:36:26;3.53;;;2.58;;
74102;SDS011;62853;46.166;3.640;2022-08-11T15:42:11;5.07;;;2.55;;
74102;SDS011;62853;46.166;3.640;2022-08-11T15:44:58;6.68;;;2.65;;
74102;SDS011;62853;46.166;3.640;2022-08-11T15:47:55;8.40;;;3.00;;
74102;SDS011;62853;46.166;3.640;2022-08-11T15:50:25;9.30;;;3.05;;
74102;SDS011;62853;46.166;3.640;2022-08-11T15:53:40;4.28;;;2.47;;
74102;SDS011;62853;46.166;3.640;2022-08-11T15:56:04;7.40;;;2.72;;
74102;SDS011;62853;46.166;3.640;2022-08-11T15:58:33;5.97;;;2.70;;
74102;SDS011;62853;46.166;3.640;2022-08-11T16:01:22;4.82;;;2.58;;
74102;SDS011;62853;46.166;3.640;2022-08-11T16:04:13;3.00;;;2.63;;
74102;SDS011;62853;46.166;3.640;2022-08-11T16:06:47;3.67;;;2.80;;
74102;SDS011;62853;46.166;3.640;2022-08-11T16:09:17;5.28;;;2.70;;
74102;SDS011;62853;46.166;3.640;2022-08-11T16:11:47;5.20;;;2.33;;
74102;SDS011;62853;46.166;3.640;2022-08-11T16:14:14;4.35;;;2.42;;
74102;SDS011;62853;46.166;3.640;2022-08-11T16:16:59;5.88;;;2.45;;
74102;SDS011;62853;46.166;3.640;2022-08-11T16:19:27;5.13;;;2.70;;
74102;SDS011;62853;46.166;3.640;2022-08-11T16:22:00;4.13;;;2.50;;
74102;SDS011;62853;46.166;3.640;2022-08-11T16:24:31;6.55;;;2.17;;
74102;SDS011;62853;46.166;3.640;2022-08-11T16:26:59;3.53;;;2.20;;
74102;SDS011;62853;46.166;3.640;2022-08-11T16:29:25;3.60;;;2.22;;
74102;SDS011;62853;46.166;3.640;2022-08-11T16:31:55;5.38;;;2.10;;
74102;SDS011;62853;46.166;3.640;2022-08-11T16:34:40;4.60;;;2.20;;
74102;SDS011;62853;46.166;3.640;2022-08-11T16:37:26;7.63;;;2.38;;
74102;SDS011;62853;46.166;3.640;2022-08-11T16:40:10;3.15;;;2.20;;
74102;SDS011;62853;46.166;3.640;2022-08-11T16:42:37;5.78;;;2.05;;
74102;SDS011;62853;46.166;3.640;2022-08-11T16:45:23;3.92;;;2.10;;
74102;SDS011;62853;46.166;3.640;2022-08-11T16:48:07;3.55;;;2.10;;
74102;SDS011;62853;46.166;3.640;2022-08-11T16:50:33;3.38;;;2.10;;
74102;SDS011;62853;46.166;3.640;2022-08-11T16:53:01;3.17;;;2.28;;
74102;SDS011;62853;46.166;3.640;2022-08-11T16:55:26;4.25;;;2.00;;
74102;SDS011;62853;46.166;3.640;2022-08-11T16:57:56;4.72;;;2.17;;
74102;SDS011;62853;46.166;3.640;2022-08-11T17:00:41;4.20;;;1.80;;
74102;SDS011;62853;46.166;3.640;2022-08-11T17:03:08;5.82;;;2.15;;
74102;SDS011;62853;46.166;3.640;2022-08-11T17:05:53;2.33;;;1.92;;
74102;SDS011;62853;46.166;3.640;2022-08-11T17:08:47;2.38;;;2.03;;
74102;SDS011;62853;46.166;3.640;2022-08-11T17:11:37;4.57;;;1.90;;
74102;SDS011;62853;46.166;3.640;2022-08-11T17:14:26;2.60;;;2.00;;
74102;SDS011;62853;46.166;3.640;2022-08-11T17:16:58;3.85;;;1.88;;
74102;SDS011;62853;46.166;3.640;2022-08-11T17:19:27;3.55;;;2.30;;
74102;SDS011;62853;46.166;3.640;2022-08-11T17:21:57;2.20;;;1.88;;
74102;SDS011;62853;46.166;3.640;2022-08-11T17:24:45;5.13;;;2.13;;
74102;SDS011;62853;46.166;3.640;2022-08-11T17:27:12;3.55;;;2.00;;
74102;SDS011;62853;46.166;3.640;2022-08-11T17:29:53;3.30;;;2.10;;
74102;SDS011;62853;46.166;3.640;2022-08-11T17:32:23;5.05;;;2.17;;
74102;SDS011;62853;46.166;3.640;2022-08-11T17:35:17;5.75;;;2.08;;
74102;SDS011;62853;46.166;3.640;2022-08-11T17:37:55;4.78;;;2.08;;
74102;SDS011;62853;46.166;3.640;2022-08-11T17:40:22;2.92;;;2.08;;
74102;SDS011;62853;46.166;3.640;2022-08-11T17:42:51;4.88;;;2.17;;
74102;SDS011;62853;46.166;3.640;2022-08-11T17:45:38;4.03;;;2.00;;
74102;SDS011;62853;46.166;3.640;2022-08-11T17:48:23;4.68;;;2.10;;
74102;SDS011;62853;46.166;3.640;2022-08-11T17:54:05;2.40;;;1.90;;
74102;SDS011;62853;46.166;3.640;2022-08-11T17:56:49;4.90;;;2.35;;
74102;SDS011;62853;46.166;3.640;2022-08-11T17:59:35;3.65;;;2.13;;
74102;SDS011;62853;46.166;3.640;2022-08-11T18:02:17;4.93;;;2.03;;
74102;SDS011;62853;46.166;3.640;2022-08-11T18:05:04;3.80;;;2.38;;
74102;SDS011;62853;46.166;3.640;2022-08-11T18:07:29;5.95;;;2.00;;
74102;SDS011;62853;46.166;3.640;2022-08-11T18:10:15;3.85;;;2.08;;
74102;SDS011;62853;46.166;3.640;2022-08-11T18:13:00;3.10;;;2.25;;
74102;SDS011;62853;46.166;3.640;2022-08-11T18:15:44;4.80;;;2.28;;
74102;SDS011;62853;46.166;3.640;2022-08-11T18:18:29;3.30;;;2.55;;
74102;SDS011;62853;46.166;3.640;2022-08-11T18:21:14;6.43;;;2.47;;
74102;SDS011;62853;46.166;3.640;2022-08-11T18:24:04;6.68;;;2.63;;
74102;SDS011;62853;46.166;3.640;2022-08-11T18:26:54;5.15;;;2.97;;
74102;SDS011;62853;46.166;3.640;2022-08-11T18:29:41;2.92;;;2.60;;
74102;SDS011;62853;46.166;3.640;2022-08-11T18:32:27;5.40;;;2.53;;
74102;SDS011;62853;46.166;3.640;2022-08-11T18:35:14;6.95;;;2.50;;
74102;SDS011;62853;46.166;3.640;2022-08-11T18:38:00;6.20;;;2.40;;
74102;SDS011;62853;46.166;3.640;2022-08-11T18:40:46;5.88;;;2.40;;
74102;SDS011;62853;46.166;3.640;2022-08-11T18:43:33;2.97;;;1.90;;
74102;SDS011;62853;46.166;3.640;2022-08-11T18:46:19;3.10;;;2.30;;
74102;SDS011;62853;46.166;3.640;2022-08-11T18:49:08;3.75;;;2.10;;
74102;SDS011;62853;46.166;3.640;2022-08-11T18:51:55;4.38;;;2.80;;
74102;SDS011;62853;46.166;3.640;2022-08-11T18:54:42;3.22;;;2.42;;
74102;SDS011;62853;46.166;3.640;2022-08-11T18:57:29;3.92;;;2.50;;
74102;SDS011;62853;46.166;3.640;2022-08-11T19:00:13;5.72;;;2.63;;
74102;SDS011;62853;46.166;3.640;2022-08-11T19:02:57;4.10;;;2.10;;
74102;SDS011;62853;46.166;3.640;2022-08-11T19:05:45;5.22;;;2.42;;
74102;SDS011;62853;46.166;3.640;2022-08-11T19:08:33;6.43;;;2.60;;
74102;SDS011;62853;46.166;3.640;2022-08-11T19:11:20;4.05;;;2.67;;
74102;SDS011;62853;46.166;3.640;2022-08-11T19:14:06;4.68;;;2.90;;
74102;SDS011;62853;46.166;3.640;2022-08-11T19:16:52;8.35;;;2.63;;
74102;SDS011;62853;46.166;3.640;2022-08-11T19:19:39;5.82;;;2.55;;
74102;SDS011;62853;46.166;3.640;2022-08-11T19:22:25;4.50;;;2.53;;
74102;SDS011;62853;46.166;3.640;2022-08-11T19:25:11;4.85;;;2.40;;
74102;SDS011;62853;46.166;3.640;2022-08-11T19:27:57;4.75;;;2.60;;
74102;SDS011;62853;46.166;3.640;2022-08-11T19:30:41;6.38;;;2.30;;
74102;SDS011;62853;46.166;3.640;2022-08-11T19:33:25;2.78;;;2.17;;
74102;SDS011;62853;46.166;3.640;2022-08-11T19:36:11;4.95;;;2.58;;
74102;SDS011;62853;46.166;3.640;2022-08-11T19:38:55;4.13;;;2.60;;
74102;SDS011;62853;46.166;3.640;2022-08-11T19:41:41;4.60;;;2.30;;
74102;SDS011;62853;46.166;3.640;2022-08-11T19:44:26;5.25;;;2.85;;
74102;SDS011;62853;46.166;3.640;2022-08-11T19:47:12;4.15;;;2.22;;
74102;SDS011;62853;46.166;3.640;2022-08-11T19:49:59;5.50;;;2.45;;
74102;SDS011;62853;46.166;3.640;2022-08-11T19:52:43;3.95;;;2.20;;
74102;SDS011;62853;46.166;3.640;2022-08-11T19:55:28;3.50;;;2.30;;
74102;SDS011;62853;46.166;3.640;2022-08-11T19:58:12;4.50;;;2.60;;
74102;SDS011;62853;46.166;3.640;2022-08-11T20:00:57;4.18;;;2.40;;
74102;SDS011;62853;46.166;3.640;2022-08-11T20:03:42;5.93;;;2.60;;
74102;SDS011;62853;46.166;3.640;2022-08-11T20:06:27;5.65;;;2.50;;
74102;SDS011;62853;46.166;3.640;2022-08-11T20:09:12;3.55;;;2.47;;
74102;SDS011;62853;46.166;3.640;2022-08-11T20:11:58;2.90;;;2.40;;
74102;SDS011;62853;46.166;3.640;2022-08-11T20:14:44;2.55;;;2.30;;
74102;SDS011;62853;46.166;3.640;2022-08-11T20:17:32;5.10;;;2.50;;
74102;SDS011;62853;46.166;3.640;2022-08-11T20:20:18;3.42;;;2.42;;
74102;SDS011;62853;46.166;3.640;2022-08-11T20:23:05;4.50;;;2.55;;
74102;SDS011;62853;46.166;3.640;2022-08-11T20:25:51;5.25;;;2.50;;
74102;SDS011;62853;46.166;3.640;2022-08-11T20:28:38;4.32;;;2.10;;
74102;SDS011;62853;46.166;3.640;2022-08-11T20:31:25;6.13;;;2.25;;
74102;SDS011;62853;46.166;3.640;2022-08-11T20:34:09;3.75;;;2.55;;
74102;SDS011;62853;46.166;3.640;2022-08-11T20:36:56;6.60;;;2.20;;
74102;SDS011;62853;46.166;3.640;2022-08-11T20:39:42;4.85;;;2.30;;
74102;SDS011;62853;46.166;3.640;2022-08-11T20:42:28;5.32;;;2.60;;
74102;SDS011;62853;46.166;3.640;2022-08-11T20:45:15;3.75;;;2.50;;
74102;SDS011;62853;46.166;3.640;2022-08-11T20:48:00;4.18;;;2.40;;
74102;SDS011;62853;46.166;3.640;2022-08-11T20:50:45;3.60;;;2.25;;
74102;SDS011;62853;46.166;3.640;2022-08-11T20:53:32;7.00;;;2.30;;
74102;SDS011;62853;46.166;3.640;2022-08-11T20:56:19;4.55;;;2.33;;
74102;SDS011;62853;46.166;3.640;2022-08-11T20:59:04;3.92;;;2.50;;
74102;SDS011;62853;46.166;3.640;2022-08-11T21:01:50;5.82;;;2.50;;
74102;SDS011;62853;46.166;3.640;2022-08-11T21:04:34;5.50;;;2.30;;
74102;SDS011;62853;46.166;3.640;2022-08-11T21:07:18;6.88;;;2.67;;
74102;SDS011;62853;46.166;3.640;2022-08-11T21:10:03;3.25;;;2.40;;
74102;SDS011;62853;46.166;3.640;2022-08-11T21:12:49;7.15;;;2.50;;
74102;SDS011;62853;46.166;3.640;2022-08-11T21:15:35;5.57;;;2.83;;
74102;SDS011;62853;46.166;3.640;2022-08-11T21:18:21;7.28;;;2.78;;
74102;SDS011;62853;46.166;3.640;2022-08-11T21:21:08;4.47;;;2.20;;
74102;SDS011;62853;46.166;3.640;2022-08-11T21:23:56;5.93;;;2.50;;
74102;SDS011;62853;46.166;3.640;2022-08-11T21:26:43;4.47;;;2.65;;
74102;SDS011;62853;46.166;3.640;2022-08-11T21:29:30;6.38;;;2.50;;
74102;SDS011;62853;46.166;3.640;2022-08-11T21:32:16;5.32;;;2.67;;
74102;SDS011;62853;46.166;3.640;2022-08-11T21:35:02;4.60;;;2.60;;
74102;SDS011;62853;46.166;3.640;2022-08-11T21:37:47;2.97;;;2.50;;
74102;SDS011;62853;46.166;3.640;2022-08-11T21:40:34;4.70;;;2.53;;
74102;SDS011;62853;46.166;3.640;2022-08-11T21:43:18;4.30;;;2.60;;
74102;SDS011;62853;46.166;3.640;2022-08-11T21:46:04;6.03;;;2.50;;
74102;SDS011;62853;46.166;3.640;2022-08-11T21:48:51;5.72;;;2.30;;
74102;SDS011;62853;46.166;3.640;2022-08-11T21:51:36;6.85;;;2.50;;
74102;SDS011;62853;46.166;3.640;2022-08-11T21:54:20;2.78;;;2.20;;
74102;SDS011;62853;46.166;3.640;2022-08-11T21:57:06;4.10;;;2.05;;
74102;SDS011;62853;46.166;3.640;2022-08-11T21:59:52;2.78;;;2.33;;
74102;SDS011;62853;46.166;3.640;2022-08-11T22:02:38;6.05;;;2.17;;
74102;SDS011;62853;46.166;3.640;2022-08-11T22:05:27;2.92;;;2.05;;
74102;SDS011;62853;46.166;3.640;2022-08-11T22:08:11;3.50;;;2.40;;
74102;SDS011;62853;46.166;3.640;2022-08-11T22:10:56;2.92;;;1.90;;
74102;SDS011;62853;46.166;3.640;2022-08-11T22:13:41;2.85;;;2.30;;
74102;SDS011;62853;46.166;3.640;2022-08-11T22:16:25;3.20;;;2.22;;
74102;SDS011;62853;46.166;3.640;2022-08-11T22:19:09;5.40;;;2.45;;
74102;SDS011;62853;46.166;3.640;2022-08-11T22:21:54;3.08;;;2.10;;
74102;SDS011;62853;46.166;3.640;2022-08-11T22:24:40;4.57;;;2.30;;
74102;SDS011;62853;46.166;3.640;2022-08-11T22:27:26;3.55;;;2.20;;
74102;SDS011;62853;46.166;3.640;2022-08-11T22:30:10;3.08;;;2.20;;
74102;SDS011;62853;46.166;3.640;2022-08-11T22:32:58;2.30;;;1.80;;
74102;SDS011;62853;46.166;3.640;2022-08-11T22:35:44;3.25;;;2.30;;
74102;SDS011;62853;46.166;3.640;2022-08-11T22:38:30;3.13;;;2.20;;
74102;SDS011;62853;46.166;3.640;2022-08-11T22:41:16;5.15;;;2.03;;
74102;SDS011;62853;46.166;3.640;2022-08-11T22:44:00;4.43;;;2.20;;
74102;SDS011;62853;46.166;3.640;2022-08-11T22:46:44;2.78;;;2.38;;
74102;SDS011;62853;46.166;3.640;2022-08-11T22:49:29;4.32;;;2.00;;
74102;SDS011;62853;46.166;3.640;2022-08-11T22:52:15;3.88;;;2.03;;
74102;SDS011;62853;46.166;3.640;2022-08-11T22:55:01;2.92;;;2.13;;
74102;SDS011;62853;46.166;3.640;2022-08-11T22:57:46;3.80;;;2.30;;
74102;SDS011;62853;46.166;3.640;2022-08-11T23:00:30;3.63;;;1.95;;
74102;SDS011;62853;46.166;3.640;2022-08-11T23:03:15;3.10;;;1.88;;
74102;SDS011;62853;46.166;3.640;2022-08-11T23:06:01;2.47;;;1.80;;
74102;SDS011;62853;46.166;3.640;2022-08-11T23:08:47;4.03;;;1.92;;
74102;SDS011;62853;46.166;3.640;2022-08-11T23:11:33;3.72;;;1.92;;
74102;SDS011;62853;46.166;3.640;2022-08-11T23:14:21;3.30;;;2.10;;
74102;SDS011;62853;46.166;3.640;2022-08-11T23:17:06;3.75;;;2.05;;
74102;SDS011;62853;46.166;3.640;2022-08-11T23:19:51;2.67;;;2.17;;
74102;SDS011;62853;46.166;3.640;2022-08-11T23:22:37;2.83;;;1.98;;
74102;SDS011;62853;46.166;3.640;2022-08-11T23:25:22;3.42;;;2.10;;
74102;SDS011;62853;46.166;3.640;2022-08-11T23:28:07;4.32;;;1.80;;
74102;SDS011;62853;46.166;3.640;2022-08-11T23:30:54;2.95;;;1.98;;
74102;SDS011;62853;46.166;3.640;2022-08-11T23:33:41;2.33;;;2.05;;
74102;SDS011;62853;46.166;3.640;2022-08-11T23:36:27;2.95;;;1.77;;
74102;SDS011;62853;46.166;3.640;2022-08-11T23:39:11;2.88;;;2.33;;
74102;SDS011;62853;46.166;3.640;2022-08-11T23:41:56;3.38;;;2.08;;
74102;SDS011;62853;46.166;3.640;2022-08-11T23:44:40;2.22;;;1.90;;
74102;SDS011;62853;46.166;3.640;2022-08-11T23:47:24;2.15;;;1.80;;
74102;SDS011;62853;46.166;3.640;2022-08-11T23:50:09;2.50;;;1.63;;
74102;SDS011;62853;46.166;3.640;2022-08-11T23:52:53;3.00;;;1.90;;
74102;SDS011;62853;46.166;3.640;2022-08-11T23:55:38;2.25;;;2.05;;
74102;SDS011;62853;46.166;3.640;2022-08-11T23:58:22;2.50;;;2.03;;
